createdAt,value
2022-09-05T00:03:09.287Z,101969.61
2022-09-05T00:07:31.163Z,101964.58
2022-09-05T00:11:54.115Z,101962.23
2022-09-05T00:16:15.644Z,101966.95
2022-09-05T00:24:26.077Z,101961.11
2022-09-05T00:25:30.373Z,101963.15
2022-09-05T00:29:52.074Z,101968.96
2022-09-05T00:34:08.009Z,101968.38
2022-09-05T00:38:16.649Z,101965.42
2022-09-05T00:42:22.751Z,101972.66
2022-09-05T00:46:44.743Z,101975.80
2022-09-05T00:50:59.932Z,101972.89
2022-09-05T00:55:09.526Z,101975.34
2022-09-05T00:59:28.500Z,101974.30
2022-09-05T01:03:36.384Z,101975.14
2022-09-05T01:07:46.806Z,101972.45
2022-09-05T01:11:53.369Z,101971.27
2022-09-05T01:16:11.776Z,101974.36
2022-09-05T01:20:19.032Z,101977.85
2022-09-05T01:24:38.387Z,101976.27
2022-09-05T01:29:15.738Z,101970.79
2022-09-05T01:33:32.188Z,101971.33
2022-09-05T01:38:02.647Z,101976.76
2022-09-05T01:42:20.972Z,101977.59
2022-09-05T01:46:33.448Z,101982.83
2022-09-05T01:51:09.910Z,101977.84
2022-09-05T01:56:03.979Z,101978.57
2022-09-05T02:00:17.409Z,101982.70
2022-09-05T02:04:29.424Z,101982.19
2022-09-05T02:09:03.417Z,101985.48
2022-09-05T02:13:25.440Z,101987.44
2022-09-05T02:17:50.555Z,101991.41
2022-09-05T02:22:00.708Z,101996.02
2022-09-05T02:26:08.263Z,101999.31
2022-09-05T02:30:13.714Z,101992.60
2022-09-05T02:34:35.081Z,101995.67
2022-09-05T02:45:01.241Z,101997.30
2022-09-05T02:45:12.353Z,102002.61
2022-09-05T02:48:15.385Z,101995.52
2022-09-05T02:57:27.557Z,101996.28
2022-09-05T02:57:37.801Z,101998.54
2022-09-05T03:01:38.315Z,101999.29
2022-09-05T03:06:02.649Z,102000.44
2022-09-05T03:10:08.131Z,101999.80
2022-09-05T03:14:17.657Z,102001.63
2022-09-05T03:18:28.668Z,102001.64
2022-09-05T03:23:08.377Z,102005.02
2022-09-05T03:27:20.157Z,102002.66
2022-09-05T03:31:51.562Z,102002.75
2022-09-05T03:36:16.092Z,102006.80
2022-09-05T03:40:31.652Z,102010.19
2022-09-05T03:44:48.567Z,102007.50
2022-09-05T03:48:58.034Z,102012.91
2022-09-05T03:57:06.680Z,102011.16
2022-09-05T03:57:55.820Z,102013.68
2022-09-05T04:04:30.454Z,102011.26
2022-09-05T04:08:23.745Z,102016.61
2022-09-05T04:11:24.235Z,102022.38
2022-09-05T04:15:33.879Z,102028.70
2022-09-05T04:19:49.783Z,102031.48
2022-09-05T04:24:06.940Z,102030.20
2022-09-05T04:28:22.537Z,102034.34
2022-09-05T04:32:54.118Z,102034.30
2022-09-05T04:37:16.324Z,102039.80
2022-09-05T04:41:39.751Z,102040.62
2022-09-05T04:45:39.358Z,102046.67
2022-09-05T04:49:57.895Z,102052.79
2022-09-05T04:54:15.973Z,102053.26
2022-09-05T04:58:22.688Z,102056.36
2022-09-05T05:06:09.765Z,102054.40
2022-09-05T05:07:07.899Z,102055.80
2022-09-05T05:17:56.979Z,102065.05
2022-09-05T05:18:07.790Z,102064.94
2022-09-05T05:20:42.766Z,102069.86
2022-09-05T05:24:58.723Z,102069.55
2022-09-05T05:29:01.502Z,102071.31
2022-09-05T05:33:10.729Z,102071.45
2022-09-05T05:37:17.134Z,102071.20
2022-09-05T05:41:28.738Z,102078.33
2022-09-05T05:45:35.334Z,102078.20
2022-09-05T05:49:47.704Z,102082.48
2022-09-05T05:54:09.675Z,102081.79
2022-09-05T05:58:12.898Z,102078.42
2022-09-05T06:02:20.968Z,102081.77
2022-09-05T06:06:30.322Z,102087.11
2022-09-05T06:14:55.455Z,102086.25
2022-09-05T06:15:22.010Z,102086.70
2022-09-05T06:19:46.997Z,102081.19
2022-09-05T06:24:06.421Z,102076.27
2022-09-05T06:28:18.953Z,102075.89
2022-09-05T06:32:32.177Z,102080.88
2022-09-05T06:36:54.944Z,102076.98
2022-09-05T06:41:10.718Z,102078.41
2022-09-05T06:48:44.169Z,102081.27
2022-09-05T06:52:56.397Z,102080.45
2022-09-05T06:57:19.357Z,102076.15
2022-09-05T07:01:32.634Z,102080.19
2022-09-05T07:05:48.977Z,102084.07
2022-09-05T07:10:22.035Z,102077.83
2022-09-05T07:14:41.210Z,102080.56
2022-09-05T07:19:03.382Z,102089.23
2022-09-05T07:23:16.907Z,102095.01
2022-09-05T07:28:26.369Z,102099.70
2022-09-05T07:32:12.091Z,102110.64
2022-09-05T07:36:18.529Z,102106.91
2022-09-05T07:40:31.265Z,102113.02
2022-09-05T07:44:43.750Z,102113.70
2022-09-05T07:48:52.683Z,102119.85
2022-09-05T07:56:54.315Z,102121.86
2022-09-05T07:57:30.376Z,102118.23
2022-09-05T08:01:22.981Z,102119.73
2022-09-05T08:05:30.206Z,102116.63
2022-09-05T08:10:09.070Z,102117.95
2022-09-05T08:14:18.196Z,102117.88
2022-09-05T08:18:45.380Z,102114.02
2022-09-05T08:22:52.596Z,102109.89
2022-09-05T08:27:27.086Z,102104.24
2022-09-05T08:31:42.370Z,102103.02
2022-09-05T08:35:52.986Z,102096.30
2022-09-05T08:40:11.597Z,102093.44
2022-09-05T08:46:43.403Z,102086.47
2022-09-05T08:49:12.314Z,102089.58
2022-09-05T08:53:45.808Z,102081.82
2022-09-05T08:58:01.818Z,102073.39
2022-09-05T09:02:44.583Z,102070.93
2022-09-05T09:07:51.617Z,102067.05
2022-09-05T09:11:32.315Z,102064.27
2022-09-05T09:15:50.866Z,102061.52
2022-09-05T09:20:06.184Z,102062.76
2022-09-05T09:24:12.565Z,102055.22
2022-09-05T09:28:48.073Z,102060.05
2022-09-05T09:33:00.689Z,102059.67
2022-09-05T09:37:26.789Z,102055.89
2022-09-05T09:41:45.911Z,102049.45
2022-09-05T09:46:07.449Z,102044.58
2022-09-05T09:50:13.593Z,102042.42
2022-09-05T09:54:28.898Z,102033.20
2022-09-05T09:58:49.063Z,102036.64
2022-09-05T10:08:14.196Z,102027.11
2022-09-05T10:10:45.057Z,102021.23
2022-09-05T10:12:00.206Z,102021.30
2022-09-05T10:16:28.559Z,102017.95
2022-09-05T10:20:29.459Z,102017.87
2022-09-05T10:24:37.620Z,102011.70
2022-09-05T10:28:52.917Z,102004.41
2022-09-05T10:35:18.286Z,102006.12
2022-09-05T10:37:45.942Z,102003.84
2022-09-05T10:41:50.885Z,101998.34
2022-09-05T10:45:57.154Z,101999.39
2022-09-05T10:50:08.568Z,102000.24
2022-09-05T10:54:13.473Z,101994.03
2022-09-05T10:59:37.423Z,101994.59
2022-09-05T11:03:00.698Z,101996.73
2022-09-05T11:07:05.614Z,101995.02
2022-09-05T11:11:12.211Z,101997.79
2022-09-05T11:15:51.199Z,101989.43
2022-09-05T11:20:26.116Z,101990.41
2022-09-05T11:24:34.853Z,101987.74
2022-09-05T11:28:57.405Z,101986.64
2022-09-05T11:39:45.855Z,101977.17
2022-09-05T11:39:55.599Z,101969.35
2022-09-05T11:41:57.818Z,101970.73
2022-09-05T11:46:05.479Z,101970.91
2022-09-05T11:50:23.885Z,101970.23
2022-09-05T11:54:27.334Z,101972.80
2022-09-05T11:58:47.314Z,101973.86
2022-09-05T12:02:59.113Z,101969.88
2022-09-05T12:07:26.868Z,101972.33
2022-09-05T12:11:49.744Z,101967.77
2022-09-05T12:15:44.081Z,101961.27
2022-09-05T12:19:59.092Z,101958.89
2022-09-05T12:25:24.550Z,101947.88
2022-09-05T12:29:33.736Z,101952.94
2022-09-05T12:36:02.409Z,101949.89
2022-09-05T12:40:16.633Z,101950.15
2022-09-05T12:42:23.596Z,101954.64
2022-09-05T12:46:41.365Z,101944.48
2022-09-05T12:50:50.479Z,101938.77
2022-09-05T12:55:06.293Z,101941.18
2022-09-05T13:03:01.614Z,101941.66
2022-09-05T13:03:28.648Z,101947.23
2022-09-05T13:07:35.521Z,101938.66
2022-09-05T13:14:49.162Z,101940.99
2022-09-05T13:15:59.326Z,101938.52
2022-09-05T13:19:55.372Z,101937.73
2022-09-05T13:24:08.146Z,101934.39
2022-09-05T13:28:24.810Z,101927.48
2022-09-05T13:38:03.037Z,101920.23
2022-09-05T13:38:12.953Z,101918.76
2022-09-05T13:41:27.876Z,101916.52
2022-09-05T13:45:14.508Z,101913.07
2022-09-05T13:49:32.772Z,101902.55
2022-09-05T13:53:35.716Z,101898.05
2022-09-05T13:57:14.103Z,101899.48
2022-09-05T14:01:18.407Z,101896.26
2022-09-05T14:05:43.294Z,101891.10
2022-09-05T14:09:49.761Z,101896.23
2022-09-05T14:14:03.129Z,101883.77
2022-09-05T14:17:51.107Z,101884.21
2022-09-05T14:21:58.205Z,101885.40
2022-09-05T14:26:04.918Z,101879.05
2022-09-05T14:31:06.059Z,101879.77
2022-09-05T14:37:51.595Z,101876.44
2022-09-05T14:38:42.944Z,101873.13
2022-09-05T14:42:18.269Z,101866.48
2022-09-05T14:45:46.120Z,101868.29
2022-09-05T14:49:49.329Z,101867.34
2022-09-05T15:02:45.724Z,101857.52
2022-09-05T15:02:50.860Z,101854.08
2022-09-05T15:06:20.015Z,101850.72
2022-09-05T15:12:23.950Z,101851.92
2022-09-05T15:14:26.905Z,101855.41
2022-09-05T15:18:16.047Z,101851.93
2022-09-05T15:22:23.673Z,101849.32
2022-09-05T15:26:16.998Z,101845.48
2022-09-05T15:30:16.923Z,101845.17
2022-09-05T15:34:13.352Z,101839.06
2022-09-05T15:38:03.966Z,101836.70
2022-09-05T15:41:59.320Z,101832.68
2022-09-05T15:45:52.414Z,101837.42
2022-09-05T15:49:43.179Z,101834.15
2022-09-05T15:53:42.284Z,101827.47
2022-09-05T15:57:33.550Z,101826.94
2022-09-05T16:01:59.158Z,101827.06
2022-09-05T16:10:58.344Z,101828.73
2022-09-05T16:17:31.304Z,101826.13
2022-09-05T16:23:31.905Z,101819.61
2022-09-05T16:23:42.691Z,101818.45
2022-09-05T16:27:40.904Z,101820.05
2022-09-05T16:31:34.785Z,101824.21
2022-09-05T16:35:33.032Z,101820.44
2022-09-05T16:39:25.946Z,101817.78
2022-09-05T16:43:22.730Z,101816.02
2022-09-05T16:47:15.686Z,101815.91
2022-09-05T16:51:32.245Z,101813.04
2022-09-05T16:55:33.864Z,101811.20
2022-09-05T16:59:28.564Z,101811.16
2022-09-05T17:03:35.791Z,101812.14
2022-09-05T17:07:31.491Z,101807.52
2022-09-05T17:11:29.507Z,101811.83
2022-09-05T17:15:22.681Z,101819.90
2022-09-05T17:19:13.049Z,101818.69
2022-09-05T17:28:16.349Z,101823.17
2022-09-05T17:29:49.643Z,101820.59
2022-09-05T17:31:54.125Z,101820.15
2022-09-05T17:35:53.712Z,101817.63
2022-09-05T17:40:01.748Z,101819.66
2022-09-05T17:44:04.890Z,101818.90
2022-09-05T17:47:59.950Z,101821.09
2022-09-05T17:51:51.254Z,101823.33
2022-09-05T17:55:41.797Z,101830.56
2022-09-05T17:59:45.449Z,101834.64
2022-09-05T18:03:35.070Z,101834.52
2022-09-05T18:07:31.796Z,101837.75
2022-09-05T18:11:44.584Z,101838.05
2022-09-05T18:15:43.932Z,101843.54
2022-09-05T18:19:38.331Z,101848.45
2022-09-05T18:23:54.491Z,101853.02
2022-09-05T18:28:03.548Z,101864.38
2022-09-05T18:31:53.919Z,101868.27
2022-09-05T18:35:50.846Z,101866.59
2022-09-05T18:39:40.621Z,101870.34
2022-09-05T18:43:35.292Z,101872.23
2022-09-05T18:47:33.579Z,101871.37
2022-09-05T18:51:23.887Z,101873.67
2022-09-05T18:56:09.406Z,101879.84
2022-09-05T18:59:27.688Z,101871.61
2022-09-05T19:03:25.927Z,101874.39
2022-09-05T19:07:17.946Z,101877.23
2022-09-05T19:11:25.370Z,101876.64
2022-09-05T19:15:38.421Z,101874.80
2022-09-05T19:19:46.172Z,101880.49
2022-09-05T19:24:04.280Z,101878.98
2022-09-05T19:33:34.224Z,101877.40
2022-09-05T19:37:06.615Z,101871.08
2022-09-05T19:37:24.419Z,101875.91
2022-09-05T19:47:31.113Z,101869.48
2022-09-05T19:47:42.610Z,101869.21
2022-09-05T19:49:20.993Z,101870.03
2022-09-05T19:53:17.805Z,101868.19
2022-09-05T19:57:10.426Z,101864.27
2022-09-05T20:01:02.468Z,101870.02
2022-09-05T20:04:56.088Z,101865.63
2022-09-05T20:08:48.936Z,101864.98
2022-09-05T20:12:38.930Z,101862.31
2022-09-05T20:16:35.231Z,101865.91
2022-09-05T20:20:26.129Z,101866.82
2022-09-05T20:24:15.167Z,101862.58
2022-09-05T20:28:09.692Z,101864.09
2022-09-05T20:31:59.428Z,101870.15
2022-09-05T20:43:07.605Z,101866.72
2022-09-05T20:43:29.815Z,101863.73
2022-09-05T20:44:28.926Z,101858.73
2022-09-05T20:54:05.109Z,101864.39
2022-09-05T20:54:19.916Z,101859.77
2022-09-05T20:56:43.082Z,101858.66
2022-09-05T21:00:36.289Z,101858.70
2022-09-05T21:04:37.525Z,101859.92
2022-09-05T21:08:28.088Z,101856.84
2022-09-05T21:12:27.581Z,101860.45
2022-09-05T21:16:20.941Z,101861.15
2022-09-05T21:20:14.050Z,101865.90
2022-09-05T21:24:18.709Z,101867.52
2022-09-05T21:28:18.072Z,101871.16
2022-09-05T21:32:10.699Z,101875.02
2022-09-05T21:35:53.260Z,101874.14
2022-09-05T21:39:57.214Z,101873.81
2022-09-05T21:47:38.804Z,101876.96
2022-09-05T21:47:58.901Z,101874.98
2022-09-05T21:51:48.271Z,101876.66
2022-09-05T21:59:19.545Z,101877.52
2022-09-05T21:59:47.849Z,101882.17
2022-09-05T22:03:37.594Z,101881.49
2022-09-05T22:07:32.453Z,101883.75
2022-09-05T22:11:22.382Z,101885.42
2022-09-05T22:15:27.471Z,101892.61
2022-09-05T22:18:48.859Z,101888.89
2022-09-05T22:22:37.906Z,101887.50
2022-09-05T22:26:30.259Z,101886.24
2022-09-05T22:30:21.032Z,101886.12
2022-09-05T22:34:10.900Z,101881.88
2022-09-05T22:38:00.262Z,101883.83
2022-09-05T22:41:52.383Z,101881.40
2022-09-05T22:45:41.667Z,101883.36
2022-09-05T22:49:30.691Z,101876.27
2022-09-05T22:53:19.842Z,101867.84
2022-09-05T22:57:09.111Z,101875.23
2022-09-05T23:00:58.121Z,101872.73
2022-09-05T23:04:47.245Z,101880.07
2022-09-05T23:08:39.046Z,101874.34
2022-09-05T23:12:28.220Z,101871.73
2022-09-05T23:16:17.522Z,101868.95
2022-09-05T23:20:07.016Z,101868.55
2022-09-05T23:23:56.003Z,101863.45
2022-09-05T23:27:45.202Z,101867.77
2022-09-05T23:31:34.686Z,101864.63
2022-09-05T23:35:24.972Z,101864.77
2022-09-05T23:39:14.245Z,101864.66
2022-09-05T23:43:03.896Z,101864.15
2022-09-05T23:46:53.382Z,101863.38
2022-09-05T23:50:43.145Z,101861.08
2022-09-05T23:54:33.365Z,101861.09
2022-09-05T23:58:22.373Z,101859.82
